Terminal Aerodrome Forecast
Issued by NWS

Home | Current Version | Previous Version | Text Only | Print | Product List | Glossary On
Versions: 1 2 3 4 5 6 7 8 9 10 11 12 13 14 15 16 17 18 19 20 21 22 23 24 25 26 27 28 29 30 31 32
871
FTUS45 KPSR 151723
TAFIWA
TAF
KIWA 151723Z 1518/1618 07008KT P6SM SKC
     FM152000 02004KT P6SM FEW250
     FM160000 VRB03KT P6SM FEW250
     FM160600 12006KT P6SM FEW250=

USA.gov is the U.S. government's official web portal to all federal, state and local government web resources and services.